Time;durP1;ratioP1;P1;durP2;ratioP2;P2;SDS_P1;SDS_P2;PMS_P1;PMS_P2;Temp;Humidity;BMP_temperature;BMP_pressure;BME280_temperature;BME280_humidity;BME280_pressure;Samples;Min_cycle;Max_cycle;Signal;HPM_P1;HPM_P2
2021/11/23 00:01:00;;;;;;;;;;;;;;;-143.85;100.00;70650.75;5014783;28;19909;-85
2021/11/23 00:03:25;;;;;;;;;;;;;;;-143.85;100.00;70650.75;5014626;28;20303;-84
2021/11/23 00:05:50;;;;;;;;;;;;;;;-143.85;100.00;70650.75;5014520;28;20370;-84
2021/11/23 00:08:17;;;;;;;;;;;;;;;-143.85;100.00;70650.75;5014496;28;19909;-84
2021/11/23 00:10:42;;;;;;;;;;;;;;;-143.85;100.00;70650.75;5015633;28;20016;-83
2021/11/23 00:13:09;;;;;;;;;;;;;;;-143.85;100.00;70650.75;5014505;28;20386;-84
2021/11/23 00:15:35;;;;;;;;;;;;;;;-143.85;100.00;70650.75;5014392;28;20007;-83
2021/11/23 00:18:01;;;;;;;;;;;;;;;-143.85;100.00;70650.75;5014389;28;19963;-83
2021/11/23 00:20:26;;;;;;;;;;;;;;;-143.85;100.00;70650.75;5014738;28;19936;-83
2021/11/23 00:22:54;;;;;;;;;;;;;;;-143.85;100.00;70650.75;5014148;28;19909;-83
2021/11/23 00:25:19;;;;;;;;;;;;;;;-143.85;100.00;70650.75;4972643;28;1221857;-82
2021/11/23 00:27:45;;;;;;;;;;;;;;;-143.85;100.00;70650.75;5015533;28;19920;-82
2021/11/23 00:30:10;;;;;;;;;;;;;;;-143.85;100.00;70650.75;5015363;28;20011;-83
2021/11/23 00:32:35;;;;;;;;;;;;;;;-143.85;100.00;70650.75;5015338;28;19909;-82
2021/11/23 00:35:00;;;;;;;;;;;;;;;-143.85;100.00;70650.75;5015040;28;20003;-83
2021/11/23 00:37:26;;;;;;;;;;;;;;;-143.85;100.00;70650.75;5014803;28;19909;-83
2021/11/23 00:39:51;;;;;;;;;;;;;;;-143.85;100.00;70650.75;5015535;28;19909;-84
2021/11/23 00:42:17;;;;;;;;;;;;;;;-143.85;100.00;70650.75;5015093;28;19936;-83
2021/11/23 00:44:42;;;;;;;;;;;;;;;-143.85;100.00;70650.75;5015162;28;19963;-82
2021/11/23 00:47:07;;;;;;;;;;;;;;;-143.85;100.00;70650.75;5014836;28;20292;-81
2021/11/23 00:49:33;;;;;;;;;;;;;;;-143.85;100.00;70650.75;5014991;28;20007;-82
2021/11/23 00:51:58;;;;;;;;;;;;;;;-143.85;100.00;70650.75;5015470;28;20368;-82
2021/11/23 00:54:23;;;;;;;;;;;;;;;-143.85;100.00;70650.75;5015977;28;19909;-82
2021/11/23 00:56:48;;;;;;;;;;;;;;;-143.85;100.00;70650.75;5014799;28;19909;-82
2021/11/23 00:59:14;;;;;;;;;;;;;;;-143.85;100.00;70650.75;5015067;28;19909;-83
2021/11/23 01:01:39;;;;;;;;;;;;;;;-143.85;100.00;70650.75;5015860;28;19909;-81
2021/11/23 01:04:05;;;;;;;;;;;;;;;-143.85;100.00;70650.75;5014772;28;19999;-81
2021/11/23 01:06:31;;;;;;;;;;;;;;;-143.85;100.00;70650.75;5014442;28;19992;-82
2021/11/23 01:08:56;;;;;;;;;;;;;;;-143.85;100.00;70650.75;5014905;28;20003;-81
2021/11/23 01:11:22;;;;;;;;;;;;;;;-143.85;100.00;70650.75;5014680;28;20279;-81
2021/11/23 01:13:48;;;;;;;;;;;;;;;-143.85;100.00;70650.75;5014613;28;19913;-82
2021/11/23 01:16:15;;;;;;;;;;;;;;;-143.85;100.00;70650.75;5014549;28;20335;-82
2021/11/23 01:18:42;;;;;;;;;;;;;;;-143.85;100.00;70650.75;5014531;28;20004;-83
2021/11/23 01:21:09;;;;;;;;;;;;;;;-143.85;100.00;70650.75;5014915;28;19909;-82
2021/11/23 01:23:35;;;;;;;;;;;;;;;-143.85;100.00;70650.75;5014399;28;20016;-81
2021/11/23 01:26:00;;;;;;;;;;;;;;;-143.85;100.00;70650.75;5014409;28;19961;-82
2021/11/23 01:28:25;;;;;;;;;;;;;;;-143.85;100.00;70650.75;5014280;28;19952;-81
2021/11/23 01:30:51;;;;;;;;;;;;;;;-143.85;100.00;70650.75;5014229;28;19909;-82
2021/11/23 01:33:17;;;;;;;;;;;;;;;-143.85;100.00;70650.75;5014164;28;20277;-83
2021/11/23 01:35:43;;;;;;;;;;;;;;;-143.85;100.00;70650.75;5014495;28;19910;-84
2021/11/23 01:38:09;;;;;;;;;;;;;;;-143.85;100.00;70650.75;5014341;28;19971;-82
2021/11/23 01:40:34;;;;;;;;;;;;;;;-143.85;100.00;70650.75;5014290;28;20525;-81
2021/11/23 01:43:05;;;;;;;;;;;;;;;-143.85;100.00;70650.75;5013946;28;20380;-81
2021/11/23 01:45:31;;;;;;;;;;;;;;;-143.85;100.00;70650.75;5013950;28;20349;-82
2021/11/23 01:47:56;;;;;;;;;;;;;;;-143.85;100.00;70650.75;5013469;28;19910;-82
2021/11/23 01:50:21;;;;;;;;;;;;;;;-143.85;100.00;70650.75;5013835;28;20501;-82
2021/11/23 01:52:47;;;;;;;;;;;;;;;-143.85;100.00;70650.75;5013916;28;19913;-81
2021/11/23 01:55:13;;;;;;;;;;;;;;;-143.85;100.00;70650.75;5013912;28;19909;-82
2021/11/23 01:57:38;;;;;;;;;;;;;;;-143.85;100.00;70650.75;5013764;28;20382;-82
2021/11/23 02:00:05;;;;;;;;;;;;;;;-143.85;100.00;70650.75;5013804;28;19913;-83
2021/11/23 02:02:31;;;;;;;;;;;;;;;-143.85;100.00;70650.75;5013740;28;19916;-82
2021/11/23 02:04:56;;;;;;;;;;;;;;;-143.85;100.00;70650.75;5014098;28;19909;-82
2021/11/23 02:07:21;;;;;;;;;;;;;;;-143.85;100.00;70650.75;5013547;28;19913;-83
2021/11/23 02:09:46;;;;;;;;;;;;;;;-143.85;100.00;70650.75;5013695;28;19913;-82
2021/11/23 02:12:12;;;;;;;;;;;;;;;-143.85;100.00;70650.75;5013559;28;19916;-83
2021/11/23 02:14:38;;;;;;;;;;;;;;;-143.85;100.00;70650.75;5013614;28;19921;-82
2021/11/23 02:17:03;;;;;;;;;;;;;;;-143.85;100.00;70650.75;5013810;28;19913;-80
2021/11/23 02:19:29;;;;;;;;;;;;;;;-143.85;100.00;70650.75;5013397;28;19917;-81
2021/11/23 02:21:54;;;;;;;;;;;;;;;-143.85;100.00;70650.75;5013572;28;19909;-83
2021/11/23 02:24:19;;;;;;;;;;;;;;;-143.85;100.00;70650.75;5013184;28;20362;-83
2021/11/23 02:26:45;;;;;;;;;;;;;;;-143.85;100.00;70650.75;5013621;28;19913;-82
2021/11/23 02:29:10;;;;;;;;;;;;;;;-143.85;100.00;70650.75;5013220;28;19910;-82
2021/11/23 02:31:36;;;;;;;;;;;;;;;-143.85;100.00;70650.75;5013270;28;19916;-82
2021/11/23 02:34:01;;;;;;;;;;;;;;;-143.85;100.00;70650.75;5013245;28;19964;-82
2021/11/23 02:36:27;;;;;;;;;;;;;;;-143.85;100.00;70650.75;5013255;28;19933;-82
2021/11/23 02:38:52;;;;;;;;;;;;;;;-143.85;100.00;70650.75;5013323;28;19959;-83
2021/11/23 02:41:18;;;;;;;;;;;;;;;-143.85;100.00;70650.75;5012962;28;19913;-84
2021/11/23 02:43:44;;;;;;;;;;;;;;;-143.85;100.00;70650.75;5012924;28;19909;-82
2021/11/23 02:46:09;;;;;;;;;;;;;;;-143.85;100.00;70650.75;5013022;28;19913;-82
2021/11/23 02:48:35;;;;;;;;;;;;;;;-143.85;100.00;70650.75;5012781;28;20265;-83
2021/11/23 02:51:18;;;;;;;;;;;;;;;-143.85;100.00;70650.75;5012894;28;19909;-82
2021/11/23 02:53:45;;;;;;;;;;;;;;;-143.85;100.00;70650.75;5012950;28;19909;-83
2021/11/23 02:56:10;;;;;;;;;;;;;;;-143.85;100.00;70650.75;5012770;28;19910;-81
2021/11/23 02:58:36;;;;;;;;;;;;;;;-143.85;100.00;70650.75;5012650;28;20308;-83
2021/11/23 03:01:03;;;;;;;;;;;;;;;-143.85;100.00;70650.75;5012517;28;19909;-82
2021/11/23 03:03:28;;;;;;;;;;;;;;;-143.85;100.00;70650.75;5012958;28;19916;-82
2021/11/23 03:05:54;;;;;;;;;;;;;;;-143.85;100.00;70650.75;5012718;28;19909;-82
2021/11/23 03:08:20;;;;;;;;;;;;;;;-143.85;100.00;70650.75;5012641;28;19913;-82
2021/11/23 03:10:46;;;;;;;;;;;;;;;-143.85;100.00;70650.75;5012599;28;19963;-82
2021/11/23 03:13:11;;;;;;;;;;;;;;;-143.85;100.00;70650.75;5012323;28;19909;-83
2021/11/23 03:15:36;;;;;;;;;;;;;;;-143.85;100.00;70650.75;5012358;28;20361;-81
2021/11/23 03:18:02;;;;;;;;;;;;;;;-143.85;100.00;70650.75;5012719;28;19916;-83
2021/11/23 03:20:28;;;;;;;;;;;;;;;-143.85;100.00;70650.75;5012583;28;20365;-82
2021/11/23 03:22:54;;;;;;;;;;;;;;;-143.85;100.00;70650.75;5012395;28;19909;-83
2021/11/23 03:25:20;;;;;;;;;;;;;;;-143.85;100.00;70650.75;5012510;28;20040;-81
2021/11/23 03:27:46;;;;;;;;;;;;;;;-143.85;100.00;70650.75;5012419;28;19909;-81
2021/11/23 03:30:12;;;;;;;;;;;;;;;-143.85;100.00;70650.75;5012919;28;19909;-82
2021/11/23 03:32:37;;;;;;;;;;;;;;;-143.85;100.00;70650.75;5012378;28;20014;-82
2021/11/23 03:35:03;;;;;;;;;;;;;;;-143.85;100.00;70650.75;5012411;28;19913;-80
2021/11/23 03:37:29;;;;;;;;;;;;;;;-143.85;100.00;70650.75;5012402;28;20009;-82
2021/11/23 03:39:55;;;;;;;;;;;;;;;-143.85;100.00;70650.75;5012216;28;20349;-82
2021/11/23 03:42:21;;;;;;;;;;;;;;;-143.85;100.00;70650.75;5012280;28;19909;-81
2021/11/23 03:44:46;;;;;;;;;;;;;;;-143.85;100.00;70650.75;5012789;28;20012;-82
2021/11/23 03:47:12;;;;;;;;;;;;;;;-143.85;100.00;70650.75;5012245;28;19967;-82
2021/11/23 03:49:42;;;;;;;;;;;;;;;-143.85;100.00;70650.75;5012387;28;19971;-82
2021/11/23 03:52:08;;;;;;;;;;;;;;;-143.85;100.00;70650.75;5012350;28;19945;-82
2021/11/23 03:54:33;;;;;;;;;;;;;;;-143.85;100.00;70650.75;5012305;28;19917;-81
2021/11/23 03:56:58;;;;;;;;;;;;;;;-143.85;100.00;70650.75;5012410;28;19917;-83
2021/11/23 03:59:24;;;;;;;;;;;;;;;-143.85;100.00;70650.75;5012256;28;19909;-81
2021/11/23 04:01:49;;;;;;;;;;;;;;;-143.85;100.00;70650.75;5012233;28;19917;-82
2021/11/23 04:04:14;;;;;;;;;;;;;;;-143.85;100.00;70650.75;5012161;28;19916;-83
2021/11/23 04:06:40;;;;;;;;;;;;;;;-143.85;100.00;70650.75;5011806;28;19910;-82
2021/11/23 04:09:05;;;;;;;;;;;;;;;-143.85;100.00;70650.75;5011976;28;19949;-82
2021/11/23 04:11:30;;;;;;;;;;;;;;;-143.85;100.00;70650.75;5012828;28;20361;-82
2021/11/23 04:13:56;;;;;;;;;;;;;;;-143.85;100.00;70650.75;5015657;28;19948;-83
2021/11/23 04:16:23;;;;;;;;;;;;;;;-143.85;100.00;70650.75;5015709;28;19944;-82
2021/11/23 04:18:49;;;;;;;;;;;;;;;-143.85;100.00;70650.75;5015493;28;20396;-83
2021/11/23 04:21:14;;;;;;;;;;;;;;;-143.85;100.00;70650.75;5015412;28;19909;-82
2021/11/23 04:23:39;;;;;;;;;;;;;;;-143.85;100.00;70650.75;5015452;28;19913;-82
2021/11/23 04:26:05;;;;;;;;;;;;;;;-143.85;100.00;70650.75;5015531;28;19918;-82
2021/11/23 04:28:30;;;;;;;;;;;;;;;-143.85;100.00;70650.75;5016024;28;19909;-83
2021/11/23 04:30:55;;;;;;;;;;;;;;;-143.85;100.00;70650.75;5015524;28;20016;-81
2021/11/23 04:33:21;;;;;;;;;;;;;;;-143.85;100.00;70650.75;5015387;28;19910;-82
2021/11/23 04:35:46;;;;;;;;;;;;;;;-143.85;100.00;70650.75;5015287;28;19932;-82
2021/11/23 04:38:12;;;;;;;;;;;;;;;-143.85;100.00;70650.75;5015022;28;19924;-81
2021/11/23 04:40:37;;;;;;;;;;;;;;;-143.85;100.00;70650.75;5015147;28;20397;-80
2021/11/23 04:43:05;;;;;;;;;;;;;;;-143.85;100.00;70650.75;5015751;28;20007;-81
2021/11/23 04:45:31;;;;;;;;;;;;;;;-143.85;100.00;70650.75;5014947;28;20003;-81
2021/11/23 04:47:56;;;;;;;;;;;;;;;-143.85;100.00;70650.75;5014920;28;20012;-82
2021/11/23 04:50:21;;;;;;;;;;;;;;;-143.85;100.00;70650.75;5014869;28;19964;-81
2021/11/23 04:52:47;;;;;;;;;;;;;;;-143.85;100.00;70650.75;5015180;28;19914;-82
2021/11/23 04:55:12;;;;;;;;;;;;;;;-143.85;100.00;70650.75;5014876;28;19936;-82
2021/11/23 04:57:38;;;;;;;;;;;;;;;-143.85;100.00;70650.75;5014910;28;20372;-82
2021/11/23 05:00:04;;;;;;;;;;;;;;;-143.85;100.00;70650.75;5015919;28;20026;-81
2021/11/23 05:02:29;;;;;;;;;;;;;;;-143.85;100.00;70650.75;5014782;28;19909;-83
2021/11/23 05:04:54;;;;;;;;;;;;;;;-143.85;100.00;70650.75;5014758;28;20423;-80
2021/11/23 05:07:19;;;;;;;;;;;;;;;-143.85;100.00;70650.75;5014545;28;19917;-81
2021/11/23 05:09:45;;;;;;;;;;;;;;;-143.85;100.00;70650.75;5014694;28;19909;-80
2021/11/23 05:12:10;;;;;;;;;;;;;;;-143.85;100.00;70650.75;5014560;28;19909;-81
2021/11/23 05:14:35;;;;;;;;;;;;;;;-143.85;100.00;70650.75;5014826;28;19916;-82
2021/11/23 05:17:01;;;;;;;;;;;;;;;-143.85;100.00;70650.75;5015984;28;20289;-83
2021/11/23 05:19:26;;;;;;;;;;;;;;;-143.85;100.00;70650.75;5014739;28;19938;-82
2021/11/23 05:21:51;;;;;;;;;;;;;;;-143.85;100.00;70650.75;5014420;28;19910;-80
2021/11/23 05:24:16;;;;;;;;;;;;;;;-143.85;100.00;70650.75;5013007;28;19964;-81
2021/11/23 05:26:42;;;;;;;;;;;;;;;-143.85;100.00;70650.75;5014702;28;19913;-80
2021/11/23 05:29:10;;;;;;;;;;;;;;;-143.85;100.00;70650.75;5014165;28;20357;-82
2021/11/23 05:31:35;;;;;;;;;;;;;;;-143.85;100.00;70650.75;5014376;28;20004;-81
2021/11/23 05:34:01;;;;;;;;;;;;;;;-143.85;100.00;70650.75;5014135;28;20400;-82
2021/11/23 05:36:26;;;;;;;;;;;;;;;-143.85;100.00;70650.75;5014149;28;19909;-84
2021/11/23 05:38:52;;;;;;;;;;;;;;;-143.85;100.00;70650.75;5014090;28;20043;-83
2021/11/23 05:41:17;;;;;;;;;;;;;;;-143.85;100.00;70650.75;5014611;28;19963;-82
2021/11/23 05:43:42;;;;;;;;;;;;;;;-143.85;100.00;70650.75;5014150;28;19963;-83
2021/11/23 05:46:08;;;;;;;;;;;;;;;-143.85;100.00;70650.75;5014008;28;19920;-82
2021/11/23 05:48:33;;;;;;;;;;;;;;;-143.85;100.00;70650.75;5013701;28;19916;-82
2021/11/23 05:51:03;;;;;;;;;;;;;;;-143.85;100.00;70650.75;5013940;28;20435;-82
2021/11/23 05:53:30;;;;;;;;;;;;;;;-143.85;100.00;70650.75;5013782;28;19923;-82
2021/11/23 05:55:55;;;;;;;;;;;;;;;-143.85;100.00;70650.75;5013872;28;19959;-81
2021/11/23 05:58:20;;;;;;;;;;;;;;;-143.85;100.00;70650.75;5013717;28;19905;-81
2021/11/23 06:00:45;;;;;;;;;;;;;;;-143.85;100.00;70650.75;5013641;28;19914;-81
2021/11/23 06:03:11;;;;;;;;;;;;;;;-143.85;100.00;70650.75;5013650;28;19905;-81
2021/11/23 06:05:36;;;;;;;;;;;;;;;-143.85;100.00;70650.75;5013618;28;20004;-82
2021/11/23 06:08:02;;;;;;;;;;;;;;;-143.85;100.00;70650.75;5013328;28;19913;-81
2021/11/23 06:10:28;;;;;;;;;;;;;;;-143.85;100.00;70650.75;5013578;28;19913;-81
2021/11/23 06:12:53;;;;;;;;;;;;;;;-143.85;100.00;70650.75;5013457;28;19909;-81
2021/11/23 06:15:20;;;;;;;;;;;;;;;-143.85;100.00;70650.75;5013748;28;19909;-82
2021/11/23 06:17:47;;;;;;;;;;;;;;;-143.85;100.00;70650.75;5013631;28;19959;-82
2021/11/23 06:20:13;;;;;;;;;;;;;;;-143.85;100.00;70650.75;5013485;28;19909;-80
2021/11/23 06:22:38;;;;;;;;;;;;;;;-143.85;100.00;70650.75;5013278;28;19928;-79
2021/11/23 06:25:07;;;;;;;;;;;;;;;-143.85;100.00;70650.75;5013364;28;20365;-79
2021/11/23 06:27:34;;;;;;;;;;;;;;;-143.85;100.00;70650.75;5013143;28;19921;-79
2021/11/23 06:30:00;;;;;;;;;;;;;;;-143.85;100.00;70650.75;5013299;28;19910;-79
2021/11/23 06:32:25;;;;;;;;;;;;;;;-143.85;100.00;70650.75;5013355;28;19909;-81
2021/11/23 06:34:51;;;;;;;;;;;;;;;-143.85;100.00;70650.75;5012992;28;19909;-78
2021/11/23 06:37:16;;;;;;;;;;;;;;;-143.85;100.00;70650.75;5014481;28;19909;-79
2021/11/23 06:39:41;;;;;;;;;;;;;;;-143.85;100.00;70650.75;5013273;28;19910;-79
2021/11/23 06:42:07;;;;;;;;;;;;;;;-143.85;100.00;70650.75;5013266;28;19909;-79
2021/11/23 06:44:32;;;;;;;;;;;;;;;-143.85;100.00;70650.75;5013125;28;19915;-79
2021/11/23 06:46:57;;;;;;;;;;;;;;;-143.85;100.00;70650.75;5013073;28;19940;-79
2021/11/23 06:49:23;;;;;;;;;;;;;;;-143.85;100.00;70650.75;5012988;28;19914;-80
2021/11/23 06:51:48;;;;;;;;;;;;;;;-143.85;100.00;70650.75;5013007;28;19909;-79
2021/11/23 06:54:13;;;;;;;;;;;;;;;-143.85;100.00;70650.75;5012881;28;19910;-81
2021/11/23 06:56:38;;;;;;;;;;;;;;;-143.85;100.00;70650.75;5012861;28;19913;-79
2021/11/23 06:59:04;;;;;;;;;;;;;;;-143.85;100.00;70650.75;5012731;28;19963;-79
2021/11/23 07:01:30;;;;;;;;;;;;;;;-143.85;100.00;70650.75;5012856;28;19909;-79
2021/11/23 07:03:56;;;;;;;;;;;;;;;-143.85;100.00;70650.75;5012644;28;20385;-79
2021/11/23 07:06:21;;;;;;;;;;;;;;;-143.85;100.00;70650.75;5012619;28;19909;-80
2021/11/23 07:08:47;;;;;;;;;;;;;;;-143.85;100.00;70650.75;5012351;28;19909;-81
2021/11/23 07:11:13;;;;;;;;;;;;;;;-143.85;100.00;70650.75;5012642;28;19913;-80
2021/11/23 07:13:39;;;;;;;;;;;;;;;-143.85;100.00;70650.75;5012468;28;19909;-79
2021/11/23 07:16:04;;;;;;;;;;;;;;;-143.85;100.00;70650.75;5012634;28;19909;-80
2021/11/23 07:18:30;;;;;;;;;;;;;;;-143.85;100.00;70650.75;5012462;28;20068;-81
2021/11/23 07:20:55;;;;;;;;;;;;;;;-143.85;100.00;70650.75;5012227;28;19909;-80
2021/11/23 07:23:21;;;;;;;;;;;;;;;-143.85;100.00;70650.75;5012178;28;19913;-80
2021/11/23 07:25:47;;;;;;;;;;;;;;;-143.85;100.00;70650.75;5011922;28;19975;-81
2021/11/23 07:28:12;;;;;;;;;;;;;;;-143.85;100.00;70650.75;5012273;28;19909;-80
2021/11/23 07:30:38;;;;;;;;;;;;;;;-143.85;100.00;70650.75;5012334;28;20027;-81
2021/11/23 07:33:04;;;;;;;;;;;;;;;-143.85;100.00;70650.75;5012264;28;19913;-80
2021/11/23 07:35:29;;;;;;;;;;;;;;;-143.85;100.00;70650.75;5012019;28;19999;-80
2021/11/23 07:37:55;;;;;;;;;;;;;;;-143.85;100.00;70650.75;5012276;28;19953;-79
2021/11/23 07:40:20;;;;;;;;;;;;;;;-143.85;100.00;70650.75;5012462;28;19917;-80
2021/11/23 07:42:45;;;;;;;;;;;;;;;-143.85;100.00;70650.75;5012437;28;20335;-80
2021/11/23 07:45:11;;;;;;;;;;;;;;;-143.85;100.00;70650.75;5012426;28;20387;-78
2021/11/23 07:47:37;;;;;;;;;;;;;;;-143.85;100.00;70650.75;5015126;28;19910;-79
2021/11/23 07:50:03;;;;;;;;;;;;;;;-143.85;100.00;70650.75;5015933;28;20373;-79
2021/11/23 07:52:28;;;;;;;;;;;;;;;-143.85;100.00;70650.75;5015973;28;19960;-79
2021/11/23 07:54:54;;;;;;;;;;;;;;;-143.85;100.00;70650.75;5016414;28;19909;-77
2021/11/23 07:57:19;;;;;;;;;;;;;;;-143.85;100.00;70650.75;5015764;28;19952;-81
2021/11/23 07:59:45;;;;;;;;;;;;;;;-143.85;100.00;70650.75;5017062;28;19909;-80
2021/11/23 08:02:10;;;;;;;;;;;;;;;-143.85;100.00;70650.75;5015913;28;19916;-81
2021/11/23 08:04:35;;;;;;;;;;;;;;;-143.85;100.00;70650.75;5015613;28;19964;-78
2021/11/23 08:07:00;;;;;;;;;;;;;;;-143.85;100.00;70650.75;5016295;28;19913;-81
2021/11/23 08:09:26;;;;;;;;;;;;;;;-143.85;100.00;70650.75;5016073;28;19909;-82
2021/11/23 08:11:51;;;;;;;;;;;;;;;-143.85;100.00;70650.75;5015522;28;20000;-79
2021/11/23 08:14:16;;;;;;;;;;;;;;;-143.85;100.00;70650.75;5015584;28;19959;-81
2021/11/23 08:16:42;;;;;;;;;;;;;;;-143.85;100.00;70650.75;5015524;28;19909;-80
2021/11/23 08:19:07;;;;;;;;;;;;;;;-143.85;100.00;70650.75;5015436;28;19913;-81
2021/11/23 08:21:32;;;;;;;;;;;;;;;-143.85;100.00;70650.75;5015381;28;19909;-80
2021/11/23 08:23:58;;;;;;;;;;;;;;;-143.85;100.00;70650.75;5014996;28;20078;-81
2021/11/23 08:26:24;;;;;;;;;;;;;;;-143.85;100.00;70650.75;5015645;28;19914;-79
2021/11/23 08:28:49;;;;;;;;;;;;;;;-143.85;100.00;70650.75;5015104;28;19909;-79
2021/11/23 08:31:15;;;;;;;;;;;;;;;-143.85;100.00;70650.75;5015260;28;19973;-79
2021/11/23 08:33:41;;;;;;;;;;;;;;;-143.85;100.00;70650.75;5015062;28;19916;-79
2021/11/23 08:36:07;;;;;;;;;;;;;;;-143.85;100.00;70650.75;5015305;28;19913;-79
2021/11/23 08:38:32;;;;;;;;;;;;;;;-143.85;100.00;70650.75;5015402;28;20288;-78
2021/11/23 08:40:57;;;;;;;;;;;;;;;-143.85;100.00;70650.75;5015277;28;19928;-79
2021/11/23 08:43:23;;;;;;;;;;;;;;;-143.85;100.00;70650.75;5015017;28;20020;-80
2021/11/23 08:45:49;;;;;;;;;;;;;;;-143.85;100.00;70650.75;5014934;28;19909;-79
2021/11/23 08:48:14;;;;;;;;;;;;;;;-143.85;100.00;70650.75;5014856;28;19945;-79
2021/11/23 08:50:40;;;;;;;;;;;;;;;-143.85;100.00;70650.75;5014686;28;19961;-81
2021/11/23 08:53:08;;;;;;;;;;;;;;;-143.85;100.00;70650.75;5014827;28;20003;-79
2021/11/23 08:55:35;;;;;;;;;;;;;;;-143.85;100.00;70650.75;5015978;28;19916;-79
2021/11/23 08:58:01;;;;;;;;;;;;;;;-143.85;100.00;70650.75;5014575;28;19909;-80
2021/11/23 09:00:26;;;;;;;;;;;;;;;-143.85;100.00;70650.75;5015200;28;20250;-79
2021/11/23 09:02:53;;;;;;;;;;;;;;;-143.85;100.00;70650.75;5014593;28;19909;-81
2021/11/23 09:05:19;;;;;;;;;;;;;;;-143.85;100.00;70650.75;5014697;28;20376;-81
2021/11/23 09:07:45;;;;;;;;;;;;;;;-143.85;100.00;70650.75;5014390;28;19932;-80
2021/11/23 09:10:30;;;;;;;;;;;;;;;-143.85;100.00;70650.75;5014429;28;19912;-79
2021/11/23 09:12:57;;;;;;;;;;;;;;;-143.85;100.00;70650.75;5014240;28;20012;-80
2021/11/23 09:15:23;;;;;;;;;;;;;;;-143.85;100.00;70650.75;5014216;28;19961;-80
2021/11/23 09:17:48;;;;;;;;;;;;;;;-143.85;100.00;70650.75;5014101;28;19909;-78
2021/11/23 09:20:15;;;;;;;;;;;;;;;-143.85;100.00;70650.75;5014399;28;19916;-79
2021/11/23 09:22:41;;;;;;;;;;;;;;;-143.85;100.00;70650.75;5014582;28;19913;-80
2021/11/23 09:25:07;;;;;;;;;;;;;;;-143.85;100.00;70650.75;5014111;28;20127;-78
2021/11/23 09:27:32;;;;;;;;;;;;;;;-143.85;100.00;70650.75;5013942;28;19975;-79
2021/11/23 09:29:58;;;;;;;;;;;;;;;-143.85;100.00;70650.75;5013588;28;20361;-80
2021/11/23 09:32:24;;;;;;;;;;;;;;;-143.85;100.00;70650.75;5014087;28;19966;-80
2021/11/23 09:34:49;;;;;;;;;;;;;;;-143.85;100.00;70650.75;5013971;28;19910;-78
2021/11/23 09:37:14;;;;;;;;;;;;;;;-143.85;100.00;70650.75;5013854;28;19953;-81
2021/11/23 09:39:40;;;;;;;;;;;;;;;-143.85;100.00;70650.75;5013795;28;19932;-80
2021/11/23 09:42:05;;;;;;;;;;;;;;;-143.85;100.00;70650.75;5013568;28;19909;-79
2021/11/23 09:44:30;;;;;;;;;;;;;;;-143.85;100.00;70650.75;5013751;28;19909;-81
2021/11/23 09:46:56;;;;;;;;;;;;;;;-143.85;100.00;70650.75;5013271;28;20408;-81
2021/11/23 09:49:21;;;;;;;;;;;;;;;-143.85;100.00;70650.75;5013836;28;19967;-80
2021/11/23 09:51:46;;;;;;;;;;;;;;;-143.85;100.00;70650.75;5014141;28;20003;-78
2021/11/23 09:54:12;;;;;;;;;;;;;;;-143.85;100.00;70650.75;5013920;28;19957;-80
2021/11/23 09:56:38;;;;;;;;;;;;;;;-143.85;100.00;70650.75;5013600;28;19920;-80
2021/11/23 09:59:05;;;;;;;;;;;;;;;-143.85;100.00;70650.75;5013492;28;19965;-79
2021/11/23 10:01:31;;;;;;;;;;;;;;;-143.85;100.00;70650.75;5013422;28;19913;-79
2021/11/23 10:03:57;;;;;;;;;;;;;;;-143.85;100.00;70650.75;5013544;28;19909;-81
2021/11/23 10:06:24;;;;;;;;;;;;;;;-143.85;100.00;70650.75;5013170;28;19953;-80
2021/11/23 10:08:50;;;;;;;;;;;;;;;-143.85;100.00;70650.75;5014167;28;19917;-79
2021/11/23 10:11:27;;;;;;;;;;;;;;;-143.85;100.00;70650.75;5013195;28;20384;-79
2021/11/23 10:13:54;;;;;;;;;;;;;;;-143.85;100.00;70650.75;5012956;28;20019;-78
2021/11/23 10:16:20;;;;;;;;;;;;;;;-143.85;100.00;70650.75;5013123;28;20279;-80
2021/11/23 10:18:50;;;;;;;;;;;;;;;-143.85;100.00;70650.75;5013131;28;20357;-78
2021/11/23 10:21:17;;;;;;;;;;;;;;;-143.85;100.00;70650.75;5013111;28;19909;-79
2021/11/23 10:23:43;;;;;;;;;;;;;;;-143.85;100.00;70650.75;5013098;28;20014;-80
2021/11/23 10:26:17;;;;;;;;;;;;;;;-143.85;100.00;70650.75;5013091;28;19921;-81
2021/11/23 10:28:48;;;;;;;;;;;;;;;-143.85;100.00;70650.75;5013688;28;19909;-79
2021/11/23 10:31:14;;;;;;;;;;;;;;;-143.85;100.00;70650.75;5013031;28;20020;-81
2021/11/23 10:33:41;;;;;;;;;;;;;;;-143.85;100.00;70650.75;5012980;28;19964;-80
2021/11/23 10:36:09;;;;;;;;;;;;;;;-143.85;100.00;70650.75;5013910;28;20425;-80
2021/11/23 10:38:36;;;;;;;;;;;;;;;-143.85;100.00;70650.75;5012940;28;19956;-80
2021/11/23 10:41:05;;;;;;;;;;;;;;;-143.85;100.00;70650.75;5012792;28;20429;-79
2021/11/23 10:43:30;;;;;;;;;;;;;;;-143.85;100.00;70650.75;5012915;28;19909;-80
2021/11/23 10:45:56;;;;;;;;;;;;;;;-143.85;100.00;70650.75;5012643;28;19909;-80
2021/11/23 10:48:23;;;;;;;;;;;;;;;-143.85;100.00;70650.75;5012945;28;19984;-80
2021/11/23 10:50:57;;;;;;;;;;;;;;;-143.85;100.00;70650.75;5012575;28;19920;-80
2021/11/23 10:53:22;;;;;;;;;;;;;;;-143.85;100.00;70650.75;5012451;28;20361;-79
2021/11/23 10:55:48;;;;;;;;;;;;;;;-143.85;100.00;70650.75;5012692;28;20004;-80
2021/11/23 10:58:13;;;;;;;;;;;;;;;-143.85;100.00;70650.75;5012434;28;20384;-79
2021/11/23 11:00:40;;;;;;;;;;;;;;;-143.85;100.00;70650.75;5013872;28;19909;-81
2021/11/23 11:03:06;;;;;;;;;;;;;;;-143.85;100.00;70650.75;5012323;28;20367;-79
2021/11/23 11:05:36;;;;;;;;;;;;;;;-143.85;100.00;70650.75;5012535;28;19909;-79
2021/11/23 11:08:02;;;;;;;;;;;;;;;-143.85;100.00;70650.75;5012309;28;20308;-80
2021/11/23 11:10:28;;;;;;;;;;;;;;;-143.85;100.00;70650.75;5012544;28;19910;-78
2021/11/23 11:12:54;;;;;;;;;;;;;;;-143.85;100.00;70650.75;5012763;28;19987;-80
2021/11/23 11:15:24;;;;;;;;;;;;;;;-143.85;100.00;70650.75;5012649;28;20354;-79
2021/11/23 11:17:49;;;;;;;;;;;;;;;-143.85;100.00;70650.75;5012420;28;20039;-81
2021/11/23 11:20:31;;;;;;;;;;;;;;;-143.85;100.00;70650.75;5013051;28;19951;-80
2021/11/23 11:23:02;;;;;;;;;;;;;;;-143.85;100.00;70650.75;5016442;28;20338;-80
2021/11/23 11:25:47;;;;;;;;;;;;;;;-143.85;100.00;70650.75;5017546;28;19917;-80
2021/11/23 11:28:13;;;;;;;;;;;;;;;-143.85;100.00;70650.75;5016248;28;20064;-79
2021/11/23 11:30:47;;;;;;;;;;;;;;;-143.85;100.00;70650.75;5016169;28;19957;-79
2021/11/23 11:33:15;;;;;;;;;;;;;;;-143.85;100.00;70650.75;5016151;28;19913;-78
2021/11/23 11:35:42;;;;;;;;;;;;;;;-143.85;100.00;70650.75;5016110;28;19910;-80
2021/11/23 11:38:27;;;;;;;;;;;;;;;-143.85;100.00;70650.75;5016253;28;20004;-80
2021/11/23 11:40:57;;;;;;;;;;;;;;;-143.85;100.00;70650.75;5016079;28;19909;-79
2021/11/23 11:43:37;;;;;;;;;;;;;;;-143.85;100.00;70650.75;5017239;28;19959;-79
2021/11/23 11:46:03;;;;;;;;;;;;;;;-143.85;100.00;70650.75;5016596;28;19956;-79
2021/11/23 11:48:32;;;;;;;;;;;;;;;-143.85;100.00;70650.75;5016276;28;20011;-80
2021/11/23 11:51:25;;;;;;;;;;;;;;;-143.85;100.00;70650.75;5015932;28;19949;-79
2021/11/23 11:53:51;;;;;;;;;;;;;;;-143.85;100.00;70650.75;5016916;28;19909;-81
2021/11/23 11:56:40;;;;;;;;;;;;;;;-143.85;100.00;70650.75;5015808;28;20316;-81
2021/11/23 11:59:17;;;;;;;;;;;;;;;-143.85;100.00;70650.75;5010345;28;19995;-80
2021/11/23 12:01:59;;;;;;;;;;;;;;;-143.85;100.00;70650.75;5015636;28;19909;-79
2021/11/23 12:04:26;;;;;;;;;;;;;;;-143.85;100.00;70650.75;5016026;28;20365;-79
2021/11/23 12:07:06;;;;;;;;;;;;;;;-143.85;100.00;70650.75;5015818;28;19909;-80
2021/11/23 12:09:31;;;;;;;;;;;;;;;-143.85;100.00;70650.75;5015676;28;20349;-78
2021/11/23 12:12:09;;;;;;;;;;;;;;;-143.85;100.00;70650.75;5015829;28;19909;-80
2021/11/23 12:14:50;;;;;;;;;;;;;;;-143.85;100.00;70650.75;5015400;28;19963;-78